Flight Track Log - Related Links

Times and Time Zones

All times are in EDT time to prevent confusion due to time zone crossing. See the USC105 flight status page for this flight to view local times or setup timezone preferences in your user account.

Time Position Orientation Groundspeed Altitude Reporting Facility
EDT Latitude Longitude Course Direction KTS MPH feet Rate Location/Type
Wed 12:20:40 AM 42.2233 -83.5667 267° West 126 145 1,600  Level Cleveland Center
Wed 12:21:41 AM 42.2200 -83.6197 265° West 144 166 2,500 934 Climbing Cleveland Center
Wed 12:22:42 AM 42.2186 -83.6703 268° West 142 163 3,500 942 Climbing Cleveland Center
Wed 12:23:42 AM 42.2172 -83.7261 268° West 145 167 4,400 914 Climbing Cleveland Center
Wed 12:26:12 AM 42.2106 -83.8586 266° West 141 162 6,700 914 Climbing Chicago Center
Wed 12:27:12 AM 42.2106 -83.9147 270° West 144 166 7,600 645 Climbing Chicago Center
Wed 12:28:13 AM 42.2094 -83.9761 269° West 158 182 8,000 198 Climbing Chicago Center
Wed 12:29:13 AM 42.2075 -84.0497 268° West 189 217 8,000  Level Chicago Center
Wed 12:30:25 AM 42.2028 -84.1386 266° West 197 227 8,000  Level Chicago Center
Wed 12:31:25 AM 42.1994 -84.2119 267° West 198 228 8,000  Level Chicago Center
Wed 12:32:26 AM 42.1964 -84.2856 267° West 198 228 8,000  Level Chicago Center
Wed 12:33:26 AM 42.1917 -84.3594 265° West 198 228 8,000  Level Chicago Center
Wed 12:34:26 AM 42.1875 -84.4328 266° West 197 227 8,000  Level Chicago Center
Wed 12:35:26 AM 42.1828 -84.5053 265° West 196 226 8,000  Level Chicago Center
Wed 12:36:27 AM 42.1792 -84.5750 266° West 197 227 8,000  Level Chicago Center
Wed 12:37:27 AM 42.1750 -84.6486 266° West 197 227 8,000  Level Chicago Center
Wed 12:38:27 AM 42.1708 -84.7217 266° West 197 227 8,000  Level Chicago Center
Wed 12:39:28 AM 42.1672 -84.7947 266° West 197 227 8,000  Level Chicago Center
Wed 12:40:28 AM 42.1625 -84.8675 265° West 197 227 8,000  Level Chicago Center
Wed 12:41:28 AM 42.1581 -84.9406 265° West 197 227 8,000  Level Chicago Center
Wed 12:42:29 AM 42.1533 -85.0150 265° West 199 229 8,000  Level Chicago Center
Wed 12:43:29 AM 42.1492 -85.0881 266° West 198 228 8,000  Level Chicago Center
Wed 12:44:29 AM 42.1444 -85.1614 265° West 198 228 8,000  Level Chicago Center
Wed 12:45:30 AM 42.1400 -85.2342 265° West 197 227 8,000  Level Chicago Center
Wed 12:46:30 AM 42.1350 -85.3100 265° West 201 231 8,000  Level Chicago Center
Wed 12:47:30 AM 42.1303 -85.3831 265° West 200 230 8,000  Level Chicago Center
Wed 12:48:30 AM 42.1242 -85.4742 265° West 203 234 8,000  Level Chicago Center
Wed 12:49:31 AM 42.1194 -85.5494 265° West 203 234 8,000  Level Chicago Center
Wed 12:50:31 AM 42.1144 -85.6250 265° West 204 235 8,000  Level Chicago Center
Wed 12:51:31 AM 42.1094 -85.7014 265° West 205 236 8,000  Level Chicago Center
Wed 12:52:32 AM 42.1039 -85.7781 264° West 206 237 8,000  Level Chicago Center
Wed 12:53:32 AM 42.0997 -85.8539 266° West 206 237 8,000  Level Chicago Center
Wed 12:54:32 AM 42.0933 -85.9297 264° West 206 237 8,000  Level Chicago Center
Wed 12:55:33 AM 42.0883 -86.0058 265° West 208 239 8,000  Level Chicago Center
Wed 12:56:33 AM 42.0828 -86.0811 264° West 203 234 8,000  Level Chicago Center
Wed 12:57:33 AM 42.0772 -86.1572 264° West 204 235 8,000  Level Chicago Center
Wed 12:58:35 AM 42.0725 -86.2311 265° West 200 230 8,000  Level Chicago Center
Wed 12:59:35 AM 42.0669 -86.3050 264° West 200 230 8,000  Level Chicago Center
Wed 01:00:35 AM 42.0611 -86.3800 264° West 202 232 8,000  Level Chicago Center
Wed 01:01:36 AM 42.0553 -86.4542 264° West 200 230 8,000  Level Chicago Center
Wed 01:02:36 AM 42.0497 -86.5286 264° West 200 230 8,000  Level Chicago Center
Wed 01:03:36 AM 42.0450 -86.6025 265° West 200 230 8,000  Level Chicago Center
Wed 01:04:36 AM 42.0392 -86.6764 264° West 199 229 8,000  Level Chicago Center
Wed 01:05:37 AM 42.0336 -86.7483 264° West 198 228 8,000  Level Chicago Center
Wed 01:06:37 AM 42.0292 -86.8214 265° West 197 227 8,000  Level Chicago Center
Wed 01:07:37 AM 42.0233 -86.8931 264° West 195 224 8,000  Level Chicago Center
Wed 01:08:37 AM 42.0189 -86.9656 265° West 195 224 8,000  Level Chicago Center
Wed 01:09:38 AM 42.0119 -87.0508 264° West 194 223 8,000  Level Chicago Center
Wed 01:10:38 AM 42.0061 -87.1222 264° West 193 222 8,000  Level Chicago Center
Wed 01:11:38 AM 42.0006 -87.1936 264° West 193 222 8,000  Level Chicago Center
Wed 01:12:38 AM 41.9944 -87.2653 263° West 194 223 8,000  Level Chicago Center
Wed 01:13:39 AM 41.9892 -87.3381 264° West 196 226 8,000  Level Chicago Center
Wed 01:14:17 AM 41.9833 -87.3833 260° West 197 227 8,000  Level Chicago TRACON
Wed 01:15:17 AM 41.9833 -87.4500 270° West 196 226 8,000  Level Chicago TRACON
Wed 01:16:17 AM 41.9667 -87.5333 255° West 191 220 8,000  Level Chicago TRACON
Wed 01:17:29 AM 41.9667 -87.6167 270° West 188 216 8,000 -182 Level Chicago TRACON
Wed 01:18:29 AM 41.9667 -87.6833 270° West 199 229 7,600 -524 Descending Chicago TRACON
Wed 01:19:35 AM 41.9500 -87.7667 255° West 204 235 6,900 -682 Descending Chicago TRACON
Wed 01:20:41 AM 41.9500 -87.8500 270° West 205 236 6,100 -810 Descending Chicago TRACON
Wed 01:21:41 AM 41.9333 -87.9167 251° West 217 250 5,200 -800 Descending Chicago TRACON
Wed 01:22:41 AM 41.9333 -88.0000 270° West 202 232 4,500 -950 Descending Chicago TRACON
Wed 01:23:41 AM 41.9167 -88.0833 255° West 212 244 3,300 -1,105 Descending Chicago TRACON
Wed 01:24:35 AM 41.9000 -88.1333 246° West 201 231 2,400 -789 Descending Chicago TRACON
Wed 01:25:35 AM 41.8667 -88.2000 236° Southwest 185 213 1,800 -545 Descending Chicago TRACON
Wed 01:26:36 AM 41.8833 -88.2500 294° West 175 201 1,300 -381 Descending Chicago TRACON
Wed 01:27:41 AM 41.9153 -88.2503 360° North 171 197 1,000 -277 Descending Chicago Center

Login

Don't have an account? Register now (free) for customized features, flight alerts, and more!